Time;durP1;ratioP1;P1;durP2;ratioP2;P2;SDS_P1;SDS_P2;PMS_P1;PMS_P2;Temp;Humidity;BMP_temperature;BMP_pressure;BME280_temperature;BME280_humidity;BME280_pressure;Samples;Min_cycle;Max_cycle;Signal;HPM_P1;HPM_P2
2022/09/11 00:00:38;;;;;;;;;;;12.90;99.90;;;;;;5146979;27;20273;-55
2022/09/11 00:03:18;;;;;;;;;;;12.90;99.90;;;;;;5123068;27;20316;-53
2022/09/11 00:06:01;;;;;;;;;;;12.90;99.90;;;;;;5100662;27;19916;-53
2022/09/11 00:08:41;;;;;;;;;;;12.90;99.90;;;;;;5103074;27;20319;-53
2022/09/11 00:11:21;;;;;;;;;;;13.00;99.90;;;;;;5090458;27;19962;-52
2022/09/11 00:14:03;;;;;;;;;;;13.00;99.90;;;;;;5115663;27;19916;-53
2022/09/11 00:16:43;;;;;;;;;;;13.00;99.90;;;;;;5124255;27;20376;-53
2022/09/11 00:19:25;;;;;;;;;;;13.00;99.90;;;;;;5107275;27;19961;-53
2022/09/11 00:22:05;;;;;;;;;;;13.00;99.90;;;;;;5108212;27;19925;-53
2022/09/11 00:24:45;;;;;;;;;;;13.00;99.90;;;;;;5089718;27;19927;-53
2022/09/11 00:27:25;;;;;;;;;;;13.10;99.90;;;;;;5116316;27;19953;-53
2022/09/11 00:30:05;;;;;;;;;;;13.00;99.90;;;;;;5104485;27;19919;-53
2022/09/11 00:32:48;;;;;;;;;;;13.00;99.90;;;;;;5083948;28;19924;-53
2022/09/11 00:35:29;;;;;;;;;;;13.10;99.90;;;;;;5104900;27;20331;-53
2022/09/11 00:38:10;;;;;;;;;;;13.10;99.90;;;;;;5111476;27;19912;-53
2022/09/11 00:40:50;;;;;;;;;;;13.10;99.90;;;;;;5119729;27;20465;-53
2022/09/11 00:43:49;;;;;;;;;;;13.10;99.90;;;;;;5146203;27;19911;-53
2022/09/11 00:46:38;;;;;;;;;;;13.10;99.90;;;;;;5075714;28;20366;-53
2022/09/11 00:49:22;;;;;;;;;;;13.10;99.90;;;;;;5109418;27;19926;-53
2022/09/11 00:52:07;;;;;;;;;;;13.10;99.90;;;;;;5125783;27;19912;-53
2022/09/11 00:54:49;;;;;;;;;;;13.10;99.90;;;;;;5113124;27;20438;-53
2022/09/11 00:57:32;;;;;;;;;;;13.10;99.90;;;;;;5113161;27;19949;-53
2022/09/11 01:00:13;;;;;;;;;;;13.10;99.90;;;;;;5181955;27;19928;-53
2022/09/11 01:02:54;;;;;;;;;;;13.10;99.90;;;;;;5118783;27;20309;-53
2022/09/11 01:05:36;;;;;;;;;;;13.10;99.90;;;;;;5094126;27;19957;-53
2022/09/11 01:08:16;;;;;;;;;;;13.10;99.90;;;;;;5111051;27;20157;-53
2022/09/11 01:11:02;;;;;;;;;;;13.10;99.90;;;;;;5111730;27;19912;-53
2022/09/11 01:13:47;;;;;;;;;;;13.10;99.90;;;;;;5098614;27;20435;-53
2022/09/11 01:16:30;;;;;;;;;;;13.10;99.90;;;;;;5092440;27;19935;-53
2022/09/11 01:19:19;;;;;;;;;;;13.10;99.90;;;;;;5109331;27;19927;-52
2022/09/11 01:22:07;;;;;;;;;;;13.10;99.90;;;;;;5088433;28;19916;-53
2022/09/11 01:24:55;;;;;;;;;;;13.10;99.90;;;;;;5108321;27;19922;-53
2022/09/11 01:27:41;;;;;;;;;;;13.10;99.90;;;;;;5105268;27;19969;-53
2022/09/11 01:30:23;;;;;;;;;;;13.10;99.90;;;;;;5095428;27;19917;-53
2022/09/11 01:33:06;;;;;;;;;;;13.10;99.90;;;;;;5082480;27;19931;-53
2022/09/11 01:35:53;;;;;;;;;;;13.10;99.90;;;;;;5124023;27;19919;-53
2022/09/11 01:38:37;;;;;;;;;;;13.10;99.90;;;;;;5104791;27;20436;-52
2022/09/11 01:41:18;;;;;;;;;;;13.00;99.90;;;;;;5097822;27;20439;-53
2022/09/11 01:44:02;;;;;;;;;;;13.10;99.90;;;;;;5095948;27;19946;-53
2022/09/11 01:46:45;;;;;;;;;;;13.10;99.90;;;;;;5124013;27;20289;-53
2022/09/11 01:49:32;;;;;;;;;;;13.10;99.90;;;;;;5124502;27;19912;-53
2022/09/11 01:52:15;;;;;;;;;;;13.20;99.90;;;;;;5105081;27;19913;-53
2022/09/11 01:54:58;;;;;;;;;;;13.20;99.90;;;;;;5117662;27;19912;-53
2022/09/11 01:57:41;;;;;;;;;;;13.20;99.90;;;;;;5104432;27;19930;-53
2022/09/11 02:00:26;;;;;;;;;;;13.30;99.90;;;;;;5104362;27;19926;-53
2022/09/11 02:03:08;;;;;;;;;;;13.30;99.90;;;;;;5104254;27;19912;-53
2022/09/11 02:05:52;;;;;;;;;;;13.30;99.90;;;;;;5107670;27;19949;-53
2022/09/11 02:08:39;;;;;;;;;;;13.30;99.90;;;;;;5164370;27;19911;-53
2022/09/11 02:11:20;;;;;;;;;;;13.30;99.90;;;;;;5104441;27;20217;-53
2022/09/11 02:14:04;;;;;;;;;;;13.30;99.90;;;;;;5096069;27;20382;-53
2022/09/11 02:16:48;;;;;;;;;;;13.40;99.90;;;;;;5104852;27;19934;-53
2022/09/11 02:19:31;;;;;;;;;;;13.40;99.90;;;;;;5103897;27;19965;-53
2022/09/11 02:22:10;;;;;;;;;;;13.40;99.90;;;;;;5119752;27;20347;-53
2022/09/11 02:24:50;;;;;;;;;;;13.40;99.90;;;;;;5089756;27;19931;-53
2022/09/11 02:27:32;;;;;;;;;;;13.40;99.90;;;;;;5125125;27;19911;-53
2022/09/11 02:30:13;;;;;;;;;;;13.50;99.90;;;;;;5125336;27;19934;-53
2022/09/11 02:32:55;;;;;;;;;;;13.50;99.90;;;;;;5104874;27;19973;-53
2022/09/11 02:35:40;;;;;;;;;;;13.50;99.90;;;;;;5113106;27;19926;-53
2022/09/11 02:38:24;;;;;;;;;;;13.50;99.90;;;;;;5104724;27;19953;-53
2022/09/11 02:41:08;;;;;;;;;;;13.50;99.90;;;;;;5112765;27;20411;-53
2022/09/11 02:43:56;;;;;;;;;;;13.50;99.90;;;;;;5117894;27;19920;-53
2022/09/11 02:46:43;;;;;;;;;;;13.50;99.90;;;;;;5104541;27;19926;-53
2022/09/11 02:49:31;;;;;;;;;;;13.60;99.90;;;;;;5111974;27;20415;-52
2022/09/11 02:52:19;;;;;;;;;;;13.50;99.90;;;;;;5119931;27;19926;-53
2022/09/11 02:55:05;;;;;;;;;;;13.50;99.90;;;;;;5113281;27;19926;-53
2022/09/11 02:57:49;;;;;;;;;;;13.60;99.90;;;;;;5112693;27;19920;-53
2022/09/11 03:00:29;;;;;;;;;;;13.50;99.90;;;;;;5104478;27;19912;-53
2022/09/11 03:03:10;;;;;;;;;;;13.50;99.90;;;;;;5111686;27;19911;-53
2022/09/11 03:05:50;;;;;;;;;;;13.50;99.90;;;;;;5117268;27;20077;-53
2022/09/11 03:08:31;;;;;;;;;;;13.50;99.90;;;;;;5084129;28;19917;-55
2022/09/11 03:11:14;;;;;;;;;;;13.50;99.90;;;;;;5089979;27;19947;-53
2022/09/11 03:13:57;;;;;;;;;;;13.50;99.90;;;;;;5118298;27;20295;-53
2022/09/11 03:16:37;;;;;;;;;;;13.50;99.90;;;;;;5104801;27;19927;-53
2022/09/11 03:19:17;;;;;;;;;;;13.50;99.90;;;;;;5093043;28;19912;-53
2022/09/11 03:21:57;;;;;;;;;;;13.50;99.90;;;;;;5105141;27;19926;-55
2022/09/11 03:24:38;;;;;;;;;;;13.50;99.90;;;;;;5090974;27;19946;-52
2022/09/11 03:27:20;;;;;;;;;;;13.50;99.90;;;;;;5112293;27;19912;-53
2022/09/11 03:30:01;;;;;;;;;;;13.50;99.90;;;;;;5118265;27;20381;-53
2022/09/11 03:32:42;;;;;;;;;;;13.50;99.90;;;;;;5122437;27;19953;-53
2022/09/11 03:35:26;;;;;;;;;;;13.40;99.90;;;;;;5104809;27;19957;-54
2022/09/11 03:38:05;;;;;;;;;;;13.40;99.90;;;;;;5110058;27;19920;-53
2022/09/11 03:40:45;;;;;;;;;;;13.40;99.90;;;;;;5107064;27;21057;-53
2022/09/11 03:43:25;;;;;;;;;;;13.40;99.90;;;;;;5085028;27;19966;-53
2022/09/11 03:46:05;;;;;;;;;;;13.40;99.90;;;;;;5104420;27;19926;-53
2022/09/11 03:48:45;;;;;;;;;;;13.50;99.90;;;;;;5104423;27;19934;-53
2022/09/11 03:51:26;;;;;;;;;;;13.50;99.90;;;;;;5104654;27;19930;-53
2022/09/11 03:54:06;;;;;;;;;;;13.50;99.90;;;;;;5115677;27;19918;-53
2022/09/11 03:56:47;;;;;;;;;;;13.50;99.90;;;;;;5104438;27;19965;-53
2022/09/11 03:59:31;;;;;;;;;;;13.50;99.90;;;;;;5103858;27;19969;-53
2022/09/11 04:02:10;;;;;;;;;;;13.50;99.90;;;;;;5105307;27;20312;-53
2022/09/11 04:04:50;;;;;;;;;;;13.50;99.90;;;;;;5088914;27;19931;-53
2022/09/11 04:07:33;;;;;;;;;;;13.50;99.90;;;;;;5124878;27;19911;-53
2022/09/11 04:10:15;;;;;;;;;;;13.40;99.90;;;;;;5104202;27;19946;-52
2022/09/11 04:12:54;;;;;;;;;;;13.40;99.90;;;;;;5105189;27;19969;-53
2022/09/11 04:15:36;;;;;;;;;;;13.40;99.90;;;;;;5104487;27;19912;-53
2022/09/11 04:18:16;;;;;;;;;;;13.40;99.90;;;;;;5104699;27;19916;-52
2022/09/11 04:20:55;;;;;;;;;;;13.40;99.90;;;;;;5083680;28;19912;-53
2022/09/11 04:23:35;;;;;;;;;;;13.40;99.90;;;;;;5099771;27;20320;-53
2022/09/11 04:26:16;;;;;;;;;;;13.40;99.90;;;;;;5104354;27;19913;-52
2022/09/11 04:28:59;;;;;;;;;;;13.40;99.90;;;;;;5104523;27;19912;-53
2022/09/11 04:31:40;;;;;;;;;;;13.40;99.90;;;;;;5105033;27;19945;-52
2022/09/11 04:34:21;;;;;;;;;;;13.40;99.90;;;;;;5093461;27;19927;-53
2022/09/11 04:37:03;;;;;;;;;;;13.50;99.90;;;;;;5104637;27;19916;-53
2022/09/11 04:39:44;;;;;;;;;;;13.40;99.90;;;;;;5103860;27;19927;-53
2022/09/11 04:42:25;;;;;;;;;;;13.50;99.90;;;;;;5104947;27;19926;-53
2022/09/11 04:45:07;;;;;;;;;;;13.50;99.90;;;;;;5104015;27;19912;-53
2022/09/11 04:47:51;;;;;;;;;;;13.50;99.90;;;;;;5104445;27;20343;-53
2022/09/11 04:50:31;;;;;;;;;;;13.50;99.90;;;;;;5124292;27;19918;-55
2022/09/11 04:53:36;;;;;;;;;;;13.50;99.90;;;;;;5099754;27;19926;-55
2022/09/11 04:56:17;;;;;;;;;;;13.50;99.90;;;;;;5113446;27;19926;-53
2022/09/11 04:59:00;;;;;;;;;;;13.50;99.90;;;;;;5124893;27;19925;-52
2022/09/11 05:01:42;;;;;;;;;;;13.50;99.90;;;;;;5104747;27;19926;-53
2022/09/11 05:04:23;;;;;;;;;;;13.50;99.90;;;;;;5120454;27;19915;-55
2022/09/11 05:07:04;;;;;;;;;;;13.60;99.90;;;;;;5103431;27;20344;-53
2022/09/11 05:09:43;;;;;;;;;;;13.50;99.90;;;;;;5102633;27;20419;-53
2022/09/11 05:12:23;;;;;;;;;;;13.50;99.90;;;;;;5104093;27;19930;-53
2022/09/11 05:15:04;;;;;;;;;;;13.50;99.90;;;;;;5086082;27;19926;-53
2022/09/11 05:17:47;;;;;;;;;;;13.50;99.90;;;;;;5103369;27;20328;-53
2022/09/11 05:20:28;;;;;;;;;;;13.40;99.90;;;;;;5103021;27;19916;-53
2022/09/11 05:23:07;;;;;;;;;;;13.30;99.90;;;;;;5160043;27;19929;-53
2022/09/11 05:25:49;;;;;;;;;;;13.20;99.90;;;;;;5091174;27;19954;-53
2022/09/11 05:28:29;;;;;;;;;;;13.10;99.90;;;;;;5083431;28;20011;-53
2022/09/11 05:31:12;;;;;;;;;;;13.00;99.90;;;;;;5103754;27;19916;-53
2022/09/11 05:33:53;;;;;;;;;;;13.00;99.90;;;;;;5124948;27;20328;-53
2022/09/11 05:36:34;;;;;;;;;;;13.00;99.90;;;;;;5101878;27;19926;-53
2022/09/11 05:39:14;;;;;;;;;;;13.00;99.90;;;;;;5101732;27;20423;-55
2022/09/11 05:41:55;;;;;;;;;;;13.10;99.90;;;;;;5103002;27;19926;-53
2022/09/11 05:44:37;;;;;;;;;;;13.30;99.90;;;;;;5088920;27;19927;-53
2022/09/11 05:47:19;;;;;;;;;;;13.40;99.90;;;;;;5102379;27;19916;-53
2022/09/11 05:50:02;;;;;;;;;;;13.60;99.90;;;;;;5102419;27;19958;-55
2022/09/11 05:52:45;;;;;;;;;;;13.80;99.90;;;;;;5103078;27;19997;-53
2022/09/11 05:55:26;;;;;;;;;;;13.90;99.90;;;;;;5093996;27;19931;-53
2022/09/11 05:58:08;;;;;;;;;;;14.00;99.90;;;;;;5103408;27;19950;-55
2022/09/11 06:00:48;;;;;;;;;;;14.10;99.90;;;;;;5103259;27;20324;-53
2022/09/11 06:03:31;;;;;;;;;;;14.20;99.90;;;;;;5123515;27;19912;-53
2022/09/11 06:06:12;;;;;;;;;;;14.20;99.90;;;;;;5103941;27;19927;-52
2022/09/11 06:08:52;;;;;;;;;;;14.30;99.90;;;;;;5084245;28;19912;-52
2022/09/11 06:11:33;;;;;;;;;;;14.40;99.90;;;;;;5080264;27;19931;-52
2022/09/11 06:14:15;;;;;;;;;;;14.60;99.90;;;;;;5088793;27;19962;-53
2022/09/11 06:16:58;;;;;;;;;;;14.80;99.90;;;;;;5104423;27;19953;-53
2022/09/11 06:19:39;;;;;;;;;;;15.00;99.90;;;;;;5079833;28;19924;-53
2022/09/11 06:22:20;;;;;;;;;;;15.10;99.90;;;;;;5090768;27;19917;-53
2022/09/11 06:25:00;;;;;;;;;;;15.20;99.90;;;;;;5091584;27;19920;-52
2022/09/11 06:27:40;;;;;;;;;;;15.30;99.90;;;;;;5104585;27;20426;-53
2022/09/11 06:30:20;;;;;;;;;;;15.40;99.90;;;;;;5162629;27;19945;-53
2022/09/11 06:33:01;;;;;;;;;;;15.60;99.90;;;;;;5105359;27;19977;-53
2022/09/11 06:35:42;;;;;;;;;;;15.60;99.90;;;;;;5125566;27;19911;-53
2022/09/11 06:38:21;;;;;;;;;;;15.50;99.90;;;;;;5101619;27;19930;-53
2022/09/11 06:41:03;;;;;;;;;;;15.50;99.90;;;;;;5105508;27;19926;-53
2022/09/11 06:43:46;;;;;;;;;;;15.60;99.90;;;;;;5106540;27;19954;-53
2022/09/11 06:46:28;;;;;;;;;;;15.80;99.90;;;;;;5111929;27;19934;-53
2022/09/11 06:49:10;;;;;;;;;;;16.00;99.90;;;;;;5110386;27;19926;-53
2022/09/11 06:52:11;;;;;;;;;;;16.20;99.90;;;;;;5155249;27;20174;-52
2022/09/11 06:54:52;;;;;;;;;;;16.30;99.90;;;;;;5100213;27;20336;-53
2022/09/11 06:57:32;;;;;;;;;;;16.40;99.90;;;;;;5108542;27;19930;-54
2022/09/11 07:00:14;;;;;;;;;;;16.60;99.90;;;;;;5111845;27;19926;-53
2022/09/11 07:02:55;;;;;;;;;;;16.60;99.90;;;;;;5113008;27;19926;-53
2022/09/11 07:05:37;;;;;;;;;;;16.60;99.90;;;;;;5113374;27;19957;-54
2022/09/11 07:08:18;;;;;;;;;;;16.50;99.90;;;;;;5124620;27;19919;-53
2022/09/11 07:11:04;;;;;;;;;;;16.50;99.90;;;;;;5111469;27;19969;-53
2022/09/11 07:13:47;;;;;;;;;;;16.60;99.90;;;;;;5102939;27;20320;-52
2022/09/11 07:16:28;;;;;;;;;;;16.60;99.90;;;;;;5116869;27;19929;-53
2022/09/11 07:19:09;;;;;;;;;;;16.50;99.90;;;;;;5108748;27;19949;-53
2022/09/11 07:21:49;;;;;;;;;;;16.40;99.90;;;;;;5094141;27;19920;-53
2022/09/11 07:24:32;;;;;;;;;;;16.50;99.90;;;;;;5098252;27;19912;-52
2022/09/11 07:27:13;;;;;;;;;;;16.50;99.90;;;;;;5109937;27;19926;-52
2022/09/11 07:29:54;;;;;;;;;;;16.80;99.90;;;;;;5107321;27;20285;-52
2022/09/11 07:32:36;;;;;;;;;;;17.00;99.90;;;;;;5111736;27;19912;-53
2022/09/11 07:35:20;;;;;;;;;;;17.30;99.90;;;;;;5061639;27;19939;-53
2022/09/11 07:38:01;;;;;;;;;;;17.60;99.90;;;;;;5107467;27;19926;-52
2022/09/11 07:40:42;;;;;;;;;;;17.90;99.90;;;;;;5113052;27;19929;-53
2022/09/11 07:43:25;;;;;;;;;;;18.10;99.90;;;;;;5085752;28;19913;-52
2022/09/11 07:46:06;;;;;;;;;;;18.30;99.90;;;;;;5124919;27;19912;-53
2022/09/11 07:48:47;;;;;;;;;;;18.20;99.90;;;;;;5122925;27;19915;-53
2022/09/11 07:51:27;;;;;;;;;;;18.10;99.90;;;;;;5110709;27;19912;-52
2022/09/11 07:54:10;;;;;;;;;;;18.30;99.90;;;;;;5113776;27;19916;-53
2022/09/11 07:56:51;;;;;;;;;;;18.50;99.90;;;;;;5109958;27;19912;-53
2022/09/11 07:59:31;;;;;;;;;;;18.80;99.90;;;;;;5117381;27;19915;-53
2022/09/11 08:02:11;;;;;;;;;;;19.10;99.90;;;;;;5071336;28;19917;-52
2022/09/11 08:04:51;;;;;;;;;;;19.40;99.90;;;;;;5107845;27;19945;-52
2022/09/11 08:07:32;;;;;;;;;;;19.60;99.90;;;;;;5111034;27;19926;-53
2022/09/11 08:10:12;;;;;;;;;;;19.80;99.90;;;;;;5075862;28;19940;-53
2022/09/11 08:12:53;;;;;;;;;;;19.60;99.90;;;;;;5108863;27;19926;-53
2022/09/11 08:15:34;;;;;;;;;;;19.50;99.90;;;;;;5107422;27;19916;-53
2022/09/11 08:18:16;;;;;;;;;;;19.50;99.90;;;;;;5110614;27;19926;-52
2022/09/11 08:21:02;;;;;;;;;;;19.50;99.90;;;;;;5106020;27;19926;-53
2022/09/11 08:23:43;;;;;;;;;;;19.30;99.90;;;;;;5080780;28;19913;-53
2022/09/11 08:26:25;;;;;;;;;;;19.20;99.90;;;;;;5147523;22;19963;-55
2022/09/11 08:29:07;;;;;;;;;;;19.20;99.90;;;;;;5092453;28;19916;-55
2022/09/11 08:31:49;;;;;;;;;;;19.10;99.90;;;;;;5087582;27;19920;-55
2022/09/11 08:34:30;;;;;;;;;;;18.90;99.90;;;;;;5142758;27;19912;-55
2022/09/11 08:37:09;;;;;;;;;;;18.70;99.90;;;;;;5115439;27;19916;-55
2022/09/11 08:39:51;;;;;;;;;;;18.70;99.90;;;;;;5111417;27;20592;-55
2022/09/11 08:42:31;;;;;;;;;;;18.90;99.90;;;;;;5121988;27;19926;-55
2022/09/11 08:45:13;;;;;;;;;;;19.10;99.90;;;;;;5121521;27;19922;-55
2022/09/11 08:47:57;;;;;;;;;;;19.50;99.90;;;;;;5108150;27;19915;-55
2022/09/11 08:50:39;;;;;;;;;;;19.60;99.90;;;;;;5109543;27;19912;-55
2022/09/11 08:53:20;;;;;;;;;;;19.70;99.90;;;;;;5121983;27;19912;-56
2022/09/11 08:56:03;;;;;;;;;;;19.80;99.90;;;;;;5088701;28;19920;-55
2022/09/11 08:58:51;;;;;;;;;;;20.00;99.90;;;;;;5092977;28;19916;-55
2022/09/11 09:01:36;;;;;;;;;;;20.40;99.90;;;;;;5122208;27;19953;-55
2022/09/11 09:04:25;;;;;;;;;;;20.60;99.90;;;;;;5112550;27;20370;-56
2022/09/11 09:07:10;;;;;;;;;;;20.80;99.90;;;;;;5107365;27;20137;-56
2022/09/11 09:09:54;;;;;;;;;;;21.10;99.90;;;;;;5083930;27;19916;-55
2022/09/11 09:12:39;;;;;;;;;;;21.10;99.90;;;;;;5122560;27;20380;-56
2022/09/11 09:15:32;;;;;;;;;;;21.20;99.90;;;;;;5114320;27;20251;-55
2022/09/11 09:18:15;;;;;;;;;;;21.20;99.90;;;;;;5100812;27;19916;-56
2022/09/11 09:21:00;;;;;;;;;;;21.20;99.90;;;;;;5099387;27;19916;-56
2022/09/11 09:23:43;;;;;;;;;;;21.30;99.90;;;;;;5110064;27;19912;-55
2022/09/11 09:26:26;;;;;;;;;;;21.30;99.90;;;;;;5128050;27;19911;-55
2022/09/11 09:29:09;;;;;;;;;;;21.30;99.90;;;;;;5101316;27;19957;-56
2022/09/11 09:31:50;;;;;;;;;;;21.30;99.90;;;;;;5123543;27;19912;-56
2022/09/11 09:34:34;;;;;;;;;;;21.40;99.90;;;;;;5122948;27;19938;-56
2022/09/11 09:37:16;;;;;;;;;;;21.40;99.90;;;;;;5081325;28;19912;-55
2022/09/11 09:39:57;;;;;;;;;;;21.30;99.90;;;;;;5122046;27;19915;-55
2022/09/11 09:42:46;;;;;;;;;;;21.60;99.90;;;;;;5122438;27;19911;-55
2022/09/11 09:45:38;;;;;;;;;;;21.70;99.90;;;;;;5116274;27;19939;-56
2022/09/11 09:48:19;;;;;;;;;;;21.50;99.90;;;;;;5123889;27;20301;-55
2022/09/11 09:50:58;;;;;;;;;;;21.30;99.90;;;;;;5124058;27;19911;-55
2022/09/11 09:53:40;;;;;;;;;;;21.10;99.90;;;;;;5104359;27;19912;-56
2022/09/11 09:56:22;;;;;;;;;;;21.10;99.90;;;;;;5070788;28;19912;-55
2022/09/11 09:59:13;;;;;;;;;;;21.40;99.90;;;;;;5083914;28;19913;-55
2022/09/11 10:01:53;;;;;;;;;;;21.50;99.90;;;;;;5105260;27;20059;-55
2022/09/11 10:04:33;;;;;;;;;;;21.50;99.90;;;;;;5125255;27;19911;-56
2022/09/11 10:07:17;;;;;;;;;;;21.40;99.90;;;;;;5084154;28;19999;-55
2022/09/11 10:10:02;;;;;;;;;;;21.50;99.90;;;;;;5108438;27;19916;-55
2022/09/11 10:12:44;;;;;;;;;;;21.30;99.90;;;;;;5084708;28;19912;-55
2022/09/11 10:15:24;;;;;;;;;;;21.30;99.90;;;;;;5099065;27;19913;-55
2022/09/11 10:18:17;;;;;;;;;;;21.50;99.90;;;;;;5125038;27;19912;-55
2022/09/11 10:21:13;;;;;;;;;;;22.00;99.90;;;;;;5082640;28;19916;-55
2022/09/11 10:23:55;;;;;;;;;;;22.50;99.90;;;;;;5124358;27;19911;-56
2022/09/11 10:26:42;;;;;;;;;;;22.40;99.90;;;;;;5107792;27;20096;-56
2022/09/11 10:29:23;;;;;;;;;;;21.90;99.90;;;;;;5102633;27;19946;-55
2022/09/11 10:32:04;;;;;;;;;;;21.60;99.90;;;;;;5124358;27;19912;-55
2022/09/11 10:34:44;;;;;;;;;;;21.20;99.90;;;;;;5123719;27;19912;-55
2022/09/11 10:37:26;;;;;;;;;;;20.90;99.90;;;;;;5103444;27;19912;-55
2022/09/11 10:40:07;;;;;;;;;;;20.50;99.90;;;;;;5122710;27;20331;-56
2022/09/11 10:42:49;;;;;;;;;;;20.00;99.90;;;;;;5103678;27;19911;-55
2022/09/11 10:45:29;;;;;;;;;;;19.70;99.90;;;;;;5076615;28;20410;-55
2022/09/11 10:48:18;;;;;;;;;;;19.40;99.90;;;;;;5082300;28;19912;-55
2022/09/11 10:51:06;;;;;;;;;;;19.30;99.90;;;;;;5083309;28;19913;-55
2022/09/11 10:53:53;;;;;;;;;;;19.50;99.90;;;;;;5125440;27;20165;-55
2022/09/11 10:56:38;;;;;;;;;;;19.70;99.90;;;;;;5068542;28;19913;-55
2022/09/11 10:59:21;;;;;;;;;;;20.00;99.90;;;;;;5124366;27;19912;-55
2022/09/11 11:02:02;;;;;;;;;;;20.40;99.90;;;;;;5104774;27;20366;-55
2022/09/11 11:04:43;;;;;;;;;;;20.30;99.90;;;;;;5125007;27;19911;-55
2022/09/11 11:07:31;;;;;;;;;;;20.40;99.90;;;;;;5104037;27;19912;-56
2022/09/11 11:10:16;;;;;;;;;;;20.60;99.90;;;;;;5109153;27;19957;-55
2022/09/11 11:13:03;;;;;;;;;;;20.70;99.90;;;;;;5104755;27;19912;-55
2022/09/11 11:15:56;;;;;;;;;;;20.90;99.90;;;;;;5096099;27;19931;-56
2022/09/11 11:18:40;;;;;;;;;;;21.10;99.90;;;;;;5113068;27;19912;-55
2022/09/11 11:21:27;;;;;;;;;;;21.30;99.90;;;;;;5125464;27;19912;-55
2022/09/11 11:24:16;;;;;;;;;;;21.60;99.90;;;;;;5104674;27;19985;-55
2022/09/11 11:27:04;;;;;;;;;;;21.90;99.90;;;;;;5082413;28;19912;-55
2022/09/11 11:29:55;;;;;;;;;;;22.50;99.90;;;;;;5070497;28;19912;-55
2022/09/11 11:32:43;;;;;;;;;;;23.10;99.90;;;;;;5102345;27;19957;-56
2022/09/11 11:35:30;;;;;;;;;;;23.50;99.90;;;;;;5120805;27;19916;-55
2022/09/11 11:38:14;;;;;;;;;;;23.10;99.90;;;;;;5112291;27;19954;-54
2022/09/11 11:40:55;;;;;;;;;;;22.50;99.90;;;;;;5104130;27;19912;-55
2022/09/11 11:43:38;;;;;;;;;;;21.90;99.90;;;;;;5112442;27;19926;-55
2022/09/11 11:46:19;;;;;;;;;;;21.80;99.90;;;;;;5099818;27;19916;-54
2022/09/11 11:49:01;;;;;;;;;;;21.90;99.90;;;;;;5110332;27;19911;-55
2022/09/11 11:51:44;;;;;;;;;;;21.90;99.90;;;;;;5113173;27;19912;-55
2022/09/11 11:54:25;;;;;;;;;;;21.90;99.90;;;;;;5116902;27;19912;-55
2022/09/11 11:57:09;;;;;;;;;;;22.00;99.90;;;;;;5090715;28;19916;-56
2022/09/11 11:59:53;;;;;;;;;;;22.20;99.90;;;;;;5123210;27;19916;-55
2022/09/11 12:02:39;;;;;;;;;;;22.20;99.90;;;;;;5121635;27;19918;-55
2022/09/11 12:05:22;;;;;;;;;;;21.80;99.90;;;;;;5076380;27;19920;-55
2022/09/11 12:08:02;;;;;;;;;;;21.60;99.90;;;;;;5103735;27;19953;-55
2022/09/11 12:10:44;;;;;;;;;;;21.40;99.90;;;;;;5108036;27;19920;-55
2022/09/11 12:13:26;;;;;;;;;;;21.30;99.90;;;;;;5101589;27;19920;-56
2022/09/11 12:16:10;;;;;;;;;;;21.20;99.90;;;;;;5091317;27;20130;-55
2022/09/11 12:19:13;;;;;;;;;;;21.00;99.90;;;;;;5133857;27;19919;-56
2022/09/11 12:22:10;;;;;;;;;;;19.80;99.90;;;;;;5092716;27;19912;-55
2022/09/11 12:24:53;;;;;;;;;;;19.00;99.90;;;;;;5083502;28;19912;-56
2022/09/11 12:27:47;;;;;;;;;;;18.70;99.90;;;;;;5083521;28;19913;-55
2022/09/11 12:30:29;;;;;;;;;;;18.70;99.90;;;;;;5083268;28;20259;-55
2022/09/11 12:33:29;;;;;;;;;;;19.10;99.90;;;;;;5103696;27;19912;-55
2022/09/11 12:36:13;;;;;;;;;;;19.40;99.90;;;;;;5083608;28;19912;-55
2022/09/11 12:38:54;;;;;;;;;;;19.60;99.90;;;;;;5141686;27;20252;-55
2022/09/11 12:41:36;;;;;;;;;;;19.80;99.90;;;;;;5124414;27;20388;-55
2022/09/11 12:44:30;;;;;;;;;;;19.70;99.90;;;;;;5103701;27;19926;-55
2022/09/11 12:47:16;;;;;;;;;;;19.80;99.90;;;;;;5098763;27;20419;-55
2022/09/11 12:49:58;;;;;;;;;;;19.90;99.90;;;;;;5096929;27;19949;-55
2022/09/11 12:52:46;;;;;;;;;;;19.90;99.90;;;;;;5099538;27;19916;-55
2022/09/11 12:55:33;;;;;;;;;;;19.80;99.90;;;;;;5092425;27;19950;-56
2022/09/11 12:58:25;;;;;;;;;;;19.50;99.90;;;;;;5099313;27;19912;-55
2022/09/11 13:01:14;;;;;;;;;;;19.20;99.90;;;;;;5116778;27;19934;-55
2022/09/11 13:04:00;;;;;;;;;;;18.90;99.90;;;;;;5122216;27;20968;-56
2022/09/11 13:06:42;;;;;;;;;;;18.80;99.90;;;;;;5104136;27;19916;-57
2022/09/11 13:09:22;;;;;;;;;;;18.70;99.90;;;;;;5080478;28;20332;-55
2022/09/11 13:12:16;;;;;;;;;;;19.00;99.90;;;;;;5121826;27;19915;-56
2022/09/11 13:14:57;;;;;;;;;;;19.40;99.90;;;;;;5118978;27;20521;-56
2022/09/11 13:17:46;;;;;;;;;;;19.70;99.90;;;;;;5124761;27;19916;-57
2022/09/11 13:20:26;;;;;;;;;;;20.00;99.90;;;;;;5124611;27;19915;-57
2022/09/11 13:23:12;;;;;;;;;;;19.90;99.90;;;;;;5083974;28;19916;-56
2022/09/11 13:25:53;;;;;;;;;;;19.70;99.90;;;;;;5094452;27;19913;-57
2022/09/11 13:28:41;;;;;;;;;;;19.50;99.90;;;;;;5103523;27;20327;-56
2022/09/11 13:31:27;;;;;;;;;;;19.50;99.90;;;;;;5125758;27;19911;-55
2022/09/11 13:34:17;;;;;;;;;;;19.40;99.90;;;;;;5111854;27;19915;-56
2022/09/11 13:36:58;;;;;;;;;;;19.40;99.90;;;;;;5105098;27;19912;-56
2022/09/11 13:39:40;;;;;;;;;;;19.60;99.90;;;;;;5104730;27;19916;-56
2022/09/11 13:42:22;;;;;;;;;;;19.60;99.90;;;;;;5125949;27;19912;-56
2022/09/11 13:45:02;;;;;;;;;;;19.70;99.90;;;;;;5122699;27;20319;-56
2022/09/11 13:47:43;;;;;;;;;;;19.90;99.90;;;;;;5125073;27;20160;-55
2022/09/11 13:50:23;;;;;;;;;;;20.00;99.90;;;;;;5124646;27;19912;-56
2022/09/11 13:53:03;;;;;;;;;;;20.10;99.90;;;;;;5125600;27;20336;-55
2022/09/11 13:55:45;;;;;;;;;;;20.30;99.90;;;;;;5116977;27;20385;-56
2022/09/11 13:58:31;;;;;;;;;;;20.40;99.90;;;;;;5083648;28;19912;-57
2022/09/11 14:01:13;;;;;;;;;;;20.60;99.90;;;;;;5084796;28;20085;-56
2022/09/11 14:03:53;;;;;;;;;;;20.80;99.90;;;;;;5125741;27;19911;-55
2022/09/11 14:06:33;;;;;;;;;;;20.80;99.90;;;;;;5067932;28;19916;-56
2022/09/11 14:09:18;;;;;;;;;;;20.90;99.90;;;;;;5104288;27;19926;-56
2022/09/11 14:12:03;;;;;;;;;;;21.00;99.90;;;;;;5084081;28;20271;-56
2022/09/11 14:14:45;;;;;;;;;;;21.10;99.90;;;;;;5125254;27;19920;-56
2022/09/11 14:17:25;;;;;;;;;;;21.10;99.90;;;;;;5141427;27;19923;-56
2022/09/11 14:20:05;;;;;;;;;;;21.10;99.90;;;;;;5112395;27;19912;-56
2022/09/11 14:22:47;;;;;;;;;;;21.00;99.90;;;;;;5123688;27;20332;-56
2022/09/11 14:25:28;;;;;;;;;;;20.80;99.90;;;;;;5131723;22;19919;-54
2022/09/11 14:28:21;;;;;;;;;;;20.60;99.90;;;;;;5103317;27;19912;-53
2022/09/11 14:31:11;;;;;;;;;;;20.50;99.90;;;;;;5104012;27;20351;-52
2022/09/11 14:34:02;;;;;;;;;;;20.50;99.90;;;;;;5103310;27;19920;-55
2022/09/11 14:36:44;;;;;;;;;;;20.20;99.90;;;;;;5091533;27;19912;-53
2022/09/11 14:39:33;;;;;;;;;;;19.90;99.90;;;;;;5084057;28;19913;-52
2022/09/11 14:42:14;;;;;;;;;;;19.70;99.90;;;;;;5105767;27;20430;-54
2022/09/11 14:44:54;;;;;;;;;;;19.50;99.90;;;;;;5105219;27;19954;-54
2022/09/11 14:47:35;;;;;;;;;;;19.60;99.90;;;;;;5125291;27;19969;-53
2022/09/11 14:50:16;;;;;;;;;;;19.70;99.90;;;;;;5104625;27;19926;-55
2022/09/11 14:52:55;;;;;;;;;;;19.70;99.90;;;;;;5105194;27;19930;-54
2022/09/11 14:55:35;;;;;;;;;;;19.60;99.90;;;;;;5100299;27;19962;-52
2022/09/11 14:58:15;;;;;;;;;;;19.40;99.90;;;;;;5084309;28;20388;-54
2022/09/11 15:00:55;;;;;;;;;;;19.40;99.90;;;;;;5125104;27;20294;-53
2022/09/11 15:03:37;;;;;;;;;;;19.30;99.90;;;;;;5126089;27;19953;-53
2022/09/11 15:06:19;;;;;;;;;;;19.50;99.90;;;;;;5095574;27;19912;-52
2022/09/11 15:09:00;;;;;;;;;;;19.80;99.90;;;;;;5104117;27;19916;-53
2022/09/11 15:11:42;;;;;;;;;;;20.20;99.90;;;;;;5105289;27;19926;-54
2022/09/11 15:14:22;;;;;;;;;;;20.60;99.90;;;;;;5104709;27;20319;-53
2022/09/11 15:17:03;;;;;;;;;;;20.90;99.90;;;;;;5105123;27;20373;-55
2022/09/11 15:19:48;;;;;;;;;;;20.80;99.90;;;;;;5104979;27;19912;-54
2022/09/11 15:22:30;;;;;;;;;;;20.40;99.90;;;;;;5105337;27;19959;-53
2022/09/11 15:25:10;;;;;;;;;;;19.90;99.90;;;;;;5104751;27;20330;-52
2022/09/11 15:27:51;;;;;;;;;;;19.50;99.90;;;;;;5105174;27;20184;-53
2022/09/11 15:30:31;;;;;;;;;;;19.10;99.90;;;;;;5125025;27;20292;-53
2022/09/11 15:33:11;;;;;;;;;;;18.80;99.90;;;;;;5105524;27;19912;-53
2022/09/11 15:35:50;;;;;;;;;;;18.50;99.90;;;;;;5119652;27;19946;-54
2022/09/11 15:38:30;;;;;;;;;;;18.30;99.90;;;;;;5105176;27;19961;-55
2022/09/11 15:41:10;;;;;;;;;;;18.20;99.90;;;;;;5104832;27;20426;-53
2022/09/11 15:43:50;;;;;;;;;;;18.00;99.90;;;;;;5125650;27;19915;-54
2022/09/11 15:46:31;;;;;;;;;;;17.80;99.90;;;;;;5093599;27;19926;-53